createdAt,value
2019-05-11T00:01:23.075Z,10.70
2019-05-11T00:03:51.975Z,10.60
2019-05-11T00:06:20.806Z,10.50
2019-05-11T00:08:49.651Z,10.40
2019-05-11T00:11:18.565Z,10.40
2019-05-11T00:13:47.413Z,10.40
2019-05-11T00:16:19.079Z,10.40
2019-05-11T00:18:46.811Z,10.30
2019-05-11T00:21:15.654Z,10.20
2019-05-11T00:23:44.864Z,10.10
2019-05-11T00:26:13.744Z,10.10
2019-05-11T00:28:42.667Z,10.00
2019-05-11T00:31:11.890Z,10.00
2019-05-11T00:33:40.848Z,9.90
2019-05-11T00:36:09.840Z,9.90
2019-05-11T00:38:38.669Z,9.80
2019-05-11T00:41:07.517Z,9.80
2019-05-11T00:43:36.350Z,9.70
2019-05-11T00:46:05.360Z,9.70
2019-05-11T00:48:34.524Z,9.70
2019-05-11T00:51:03.436Z,9.60
2019-05-11T00:53:32.660Z,9.50
2019-05-11T00:56:01.687Z,9.50
2019-05-11T00:58:30.597Z,9.60
2019-05-11T01:00:59.700Z,9.60
2019-05-11T01:03:28.520Z,9.60
2019-05-11T01:05:57.622Z,9.60
2019-05-11T01:08:26.597Z,9.60
2019-05-11T01:10:55.808Z,9.60
2019-05-11T01:13:25.086Z,9.70
2019-05-11T01:15:53.906Z,9.70
2019-05-11T01:18:22.749Z,9.70
2019-05-11T01:20:51.590Z,9.70
2019-05-11T01:23:20.764Z,9.80
2019-05-11T01:25:49.608Z,9.80
2019-05-11T01:28:18.457Z,9.80
2019-05-11T01:30:47.643Z,9.80
2019-05-11T01:33:16.528Z,9.70
2019-05-11T01:35:45.453Z,9.60
2019-05-11T01:38:14.375Z,9.60
2019-05-11T01:40:57.634Z,9.70
2019-05-11T01:43:13.934Z,9.70
2019-05-11T01:45:42.787Z,9.80
2019-05-11T01:48:12.067Z,9.80
2019-05-11T01:50:40.964Z,9.80
2019-05-11T01:53:09.742Z,9.90
2019-05-11T01:55:38.616Z,9.90
2019-05-11T01:58:07.453Z,9.90
2019-05-11T02:00:36.644Z,10.00
2019-05-11T02:03:05.521Z,10.00
2019-05-11T02:05:34.737Z,10.00
2019-05-11T02:08:04.089Z,10.00
2019-05-11T02:10:34.188Z,10.00
2019-05-11T02:13:03.552Z,10.00
2019-05-11T02:15:32.691Z,10.00
2019-05-11T02:18:01.506Z,10.00
2019-05-11T02:20:30.720Z,10.00
2019-05-11T02:22:59.596Z,10.00
2019-05-11T02:25:28.497Z,10.00
2019-05-11T02:27:57.349Z,10.00
2019-05-11T02:30:26.342Z,10.00
2019-05-11T02:32:55.487Z,10.10
2019-05-11T02:35:24.752Z,10.00
2019-05-11T02:37:53.602Z,10.00
2019-05-11T02:40:22.678Z,10.00
2019-05-11T02:42:51.906Z,10.00
2019-05-11T02:45:35.175Z,10.00
2019-05-11T02:48:04.049Z,10.00
2019-05-11T02:50:33.911Z,10.00
2019-05-11T02:53:04.132Z,10.00
2019-05-11T02:55:34.638Z,10.00
2019-05-11T02:58:03.726Z,10.00
2019-05-11T03:00:38.406Z,10.00
2019-05-11T03:03:07.334Z,10.00
2019-05-11T03:05:36.291Z,10.00
2019-05-11T03:08:05.554Z,10.00
2019-05-11T03:10:34.519Z,10.00
2019-05-11T03:13:03.806Z,10.00
2019-05-11T03:15:33.036Z,10.00
2019-05-11T03:18:01.863Z,10.00
2019-05-11T03:20:30.744Z,10.00
2019-05-11T03:23:00.013Z,9.90
2019-05-11T03:25:28.900Z,9.90
2019-05-11T03:27:58.005Z,9.90
2019-05-11T03:30:26.963Z,9.90
2019-05-11T03:32:55.844Z,9.90
2019-05-11T03:35:24.702Z,9.90
2019-05-11T03:37:53.570Z,10.00
2019-05-11T03:40:22.569Z,10.00
2019-05-11T03:42:51.709Z,10.10
2019-05-11T03:45:20.610Z,10.00
2019-05-11T03:47:49.436Z,10.00
2019-05-11T03:50:18.404Z,10.00
2019-05-11T03:52:47.278Z,10.00
2019-05-11T03:55:16.591Z,10.00
2019-05-11T03:57:45.544Z,10.00
2019-05-11T04:00:16.039Z,10.00
2019-05-11T04:02:45.190Z,10.00
2019-05-11T04:05:14.419Z,10.00
2019-05-11T04:07:43.773Z,10.00
2019-05-11T04:10:13.608Z,9.90
2019-05-11T04:12:42.485Z,9.90
2019-05-11T04:15:11.670Z,9.90
2019-05-11T04:17:40.457Z,9.80
2019-05-11T04:20:10.194Z,9.80
2019-05-11T04:22:39.051Z,9.80
2019-05-11T04:25:08.363Z,9.80
2019-05-11T04:27:37.147Z,9.90
2019-05-11T04:30:06.442Z,9.90
2019-05-11T04:32:35.637Z,10.00
2019-05-11T04:35:04.725Z,10.00
2019-05-11T04:37:33.599Z,10.10
2019-05-11T04:40:02.556Z,10.20
2019-05-11T04:42:31.718Z,10.20
2019-05-11T04:45:00.577Z,10.30
2019-05-11T04:47:29.667Z,10.40
2019-05-11T04:49:58.981Z,10.40
2019-05-11T04:52:27.777Z,10.40
2019-05-11T04:54:56.677Z,10.40
2019-05-11T04:57:25.712Z,10.40
2019-05-11T04:59:54.532Z,10.50
2019-05-11T05:02:23.408Z,10.50
2019-05-11T05:04:52.245Z,10.60
2019-05-11T05:07:21.385Z,10.70
2019-05-11T05:09:50.181Z,10.70
2019-05-11T05:12:19.293Z,10.90
2019-05-11T05:14:48.172Z,11.00
2019-05-11T05:17:17.065Z,11.20
2019-05-11T05:19:45.864Z,11.30
2019-05-11T05:22:14.641Z,11.40
2019-05-11T05:24:43.539Z,11.60
2019-05-11T05:27:12.608Z,11.60
2019-05-11T05:29:41.628Z,11.70
2019-05-11T05:32:10.614Z,11.80
2019-05-11T05:34:39.400Z,11.90
2019-05-11T05:37:08.185Z,12.00
2019-05-11T05:39:37.066Z,12.10
2019-05-11T05:42:06.163Z,12.20
2019-05-11T05:44:35.550Z,12.40
2019-05-11T05:47:04.841Z,12.50
2019-05-11T05:49:33.673Z,12.60
2019-05-11T05:52:02.535Z,12.70
2019-05-11T05:54:31.406Z,12.80
2019-05-11T05:57:00.625Z,12.90
2019-05-11T05:59:29.418Z,13.00
2019-05-11T06:01:59.562Z,13.10
2019-05-11T06:04:28.716Z,13.30
2019-05-11T06:06:57.613Z,13.40
2019-05-11T06:09:26.396Z,13.50
2019-05-11T06:11:55.285Z,13.60
2019-05-11T06:14:24.409Z,13.50
2019-05-11T06:16:53.584Z,13.50
2019-05-11T06:19:22.458Z,13.40
2019-05-11T06:21:51.408Z,13.30
2019-05-11T06:24:20.241Z,13.30
2019-05-11T06:26:49.096Z,13.50
2019-05-11T06:29:21.527Z,13.80
2019-05-11T06:31:48.501Z,14.10
2019-05-11T06:34:17.370Z,14.60
2019-05-11T06:36:46.194Z,15.00
2019-05-11T06:39:15.090Z,15.50
2019-05-11T06:41:43.889Z,15.90
2019-05-11T06:44:12.840Z,16.10
2019-05-11T06:46:41.654Z,16.10
2019-05-11T06:49:10.455Z,16.30
2019-05-11T06:51:40.615Z,16.50
2019-05-11T06:54:10.042Z,16.60
2019-05-11T06:56:38.863Z,16.70
2019-05-11T06:59:07.670Z,16.80
2019-05-11T07:01:36.469Z,16.70
2019-05-11T07:04:05.290Z,16.60
2019-05-11T07:06:34.102Z,16.50
2019-05-11T07:09:05.486Z,16.30
2019-05-11T07:11:34.349Z,16.20
2019-05-11T07:14:19.264Z,16.00
2019-05-11T07:16:33.672Z,16.00
2019-05-11T07:19:02.457Z,16.10
2019-05-11T07:21:31.397Z,16.30
2019-05-11T07:24:00.310Z,16.50
2019-05-11T07:26:29.182Z,16.70
2019-05-11T07:28:57.990Z,17.10
2019-05-11T07:31:27.280Z,17.50
2019-05-11T07:33:58.601Z,17.60
2019-05-11T07:36:28.226Z,17.50
2019-05-11T07:38:58.134Z,17.50
2019-05-11T07:41:28.078Z,17.50
2019-05-11T07:43:59.019Z,17.20
2019-05-11T07:46:28.797Z,17.10
2019-05-11T07:48:58.579Z,17.00
2019-05-11T07:51:28.751Z,16.90
2019-05-11T07:53:58.013Z,17.10
2019-05-11T07:56:28.543Z,17.40
2019-05-11T07:58:58.209Z,18.10
2019-05-11T08:01:28.249Z,18.70
2019-05-11T08:03:58.610Z,19.20
2019-05-11T08:06:28.534Z,19.40
2019-05-11T08:08:58.815Z,19.50
2019-05-11T08:11:31.177Z,19.90
2019-05-11T08:13:58.643Z,19.80
2019-05-11T08:16:28.523Z,19.60
2019-05-11T08:18:58.934Z,19.70
2019-05-11T08:21:28.607Z,20.20
2019-05-11T08:23:58.745Z,20.50
2019-05-11T08:26:28.288Z,20.40
2019-05-11T08:28:58.049Z,20.30
2019-05-11T08:31:27.909Z,20.10
2019-05-11T08:33:58.317Z,20.10
2019-05-11T08:36:28.915Z,19.90
2019-05-11T08:38:58.709Z,19.70
2019-05-11T08:41:28.108Z,19.70
2019-05-11T08:43:58.701Z,19.70
2019-05-11T08:46:28.151Z,19.90
2019-05-11T08:48:59.366Z,20.20
2019-05-11T08:53:51.000Z,20.30
2019-05-11T08:56:20.745Z,20.80
2019-05-11T08:58:50.195Z,20.60
2019-05-11T09:01:19.713Z,20.70
2019-05-11T09:03:48.550Z,21.00
2019-05-11T09:06:18.045Z,21.10
2019-05-11T09:08:49.340Z,21.00
2019-05-11T09:11:19.213Z,20.40
2019-05-11T09:13:49.048Z,19.80
2019-05-11T09:16:19.189Z,19.20
2019-05-11T09:18:48.801Z,18.60
2019-05-11T09:21:19.033Z,18.10
2019-05-11T09:23:48.757Z,17.40
2019-05-11T09:26:18.406Z,16.90
2019-05-11T09:28:48.114Z,16.40
2019-05-11T09:31:18.873Z,16.30
2019-05-11T09:33:48.704Z,16.40
2019-05-11T09:36:18.327Z,16.80
2019-05-11T09:38:48.989Z,17.50
2019-05-11T09:41:20.996Z,18.20
2019-05-11T09:43:50.095Z,18.80
2019-05-11T09:46:19.489Z,19.50
2019-05-11T09:48:48.716Z,20.20
2019-05-11T09:51:18.474Z,20.80
2019-05-11T09:53:48.501Z,21.20
2019-05-11T09:56:18.312Z,21.40
2019-05-11T09:58:48.085Z,21.60
2019-05-11T10:01:20.191Z,21.60
2019-05-11T10:03:49.093Z,21.60
2019-05-11T10:06:19.199Z,21.90
2019-05-11T10:08:48.887Z,22.20
2019-05-11T10:11:18.977Z,22.10
2019-05-11T10:13:48.224Z,21.70
2019-05-11T10:16:17.878Z,21.50
2019-05-11T10:18:49.156Z,21.30
2019-05-11T10:21:18.853Z,21.10
2019-05-11T10:23:48.876Z,20.90
2019-05-11T10:26:18.771Z,20.70
2019-05-11T10:28:48.312Z,20.70
2019-05-11T10:31:18.223Z,20.60
2019-05-11T10:33:48.950Z,20.50
2019-05-11T10:36:19.141Z,20.60
2019-05-11T10:38:49.092Z,20.70
2019-05-11T10:41:18.860Z,21.20
2019-05-11T10:43:48.863Z,21.60
2019-05-11T10:46:22.915Z,21.90
2019-05-11T10:48:48.712Z,22.10
2019-05-11T10:51:18.447Z,22.30
2019-05-11T10:53:51.267Z,22.90
2019-05-11T10:56:18.546Z,22.80
2019-05-11T10:58:48.238Z,22.70
2019-05-11T11:01:18.301Z,22.50
2019-05-11T11:03:48.523Z,22.50
2019-05-11T11:06:18.839Z,22.20
2019-05-11T11:08:48.740Z,21.80
2019-05-11T11:11:18.657Z,21.50
2019-05-11T11:13:48.141Z,21.60
2019-05-11T11:16:32.761Z,22.10
2019-05-11T11:18:48.556Z,22.80
2019-05-11T11:21:22.660Z,23.00
2019-05-11T11:23:49.689Z,23.20
2019-05-11T11:26:19.460Z,23.30
2019-05-11T11:28:48.288Z,23.30
2019-05-11T11:31:18.641Z,23.20
2019-05-11T11:33:48.888Z,23.10
2019-05-11T11:36:18.137Z,22.70
2019-05-11T11:38:47.777Z,22.20
2019-05-11T11:41:18.530Z,21.60
2019-05-11T11:43:48.276Z,21.20
2019-05-11T11:46:18.788Z,20.80
2019-05-11T11:48:48.799Z,20.60
2019-05-11T11:51:18.776Z,20.40
2019-05-11T11:53:48.498Z,20.30
2019-05-11T11:56:19.213Z,20.10
2019-05-11T11:58:48.896Z,19.80
2019-05-11T12:01:18.961Z,19.90
2019-05-11T12:03:48.816Z,20.10
2019-05-11T12:06:18.440Z,20.30
2019-05-11T12:08:49.616Z,20.50
2019-05-11T12:11:18.930Z,20.70
2019-05-11T12:13:47.959Z,20.80
2019-05-11T12:16:18.134Z,20.90
2019-05-11T12:18:48.703Z,20.60
2019-05-11T12:21:18.719Z,20.30
2019-05-11T12:23:48.666Z,20.30
2019-05-11T12:26:17.995Z,20.40
2019-05-11T12:28:48.978Z,20.50
2019-05-11T12:31:18.676Z,20.90
2019-05-11T12:33:48.454Z,20.90
2019-05-11T12:36:18.818Z,20.70
2019-05-11T12:38:48.884Z,20.20
2019-05-11T12:41:19.232Z,19.90
2019-05-11T12:43:48.993Z,19.80
2019-05-11T12:46:18.831Z,20.10
2019-05-11T12:48:48.601Z,20.80
2019-05-11T12:51:18.550Z,21.80
2019-05-11T12:53:48.152Z,22.50
2019-05-11T12:56:19.002Z,22.60
2019-05-11T12:58:49.187Z,22.80
2019-05-11T13:01:18.998Z,22.50
2019-05-11T13:03:49.341Z,22.50
2019-05-11T13:06:19.285Z,22.40
2019-05-11T13:08:48.470Z,22.10
2019-05-11T13:11:18.659Z,21.70
2019-05-11T13:13:48.447Z,21.10
2019-05-11T13:16:18.585Z,20.60
2019-05-11T13:18:48.738Z,20.40
2019-05-11T13:21:18.450Z,20.20
2019-05-11T13:23:48.908Z,20.30
2019-05-11T13:26:18.208Z,20.20
2019-05-11T13:28:48.461Z,20.20
2019-05-11T13:31:18.709Z,19.80
2019-05-11T13:33:48.217Z,19.40
2019-05-11T13:36:18.614Z,18.60
2019-05-11T13:38:48.553Z,17.80
2019-05-11T13:41:18.725Z,16.90
2019-05-11T13:43:48.562Z,16.40
2019-05-11T13:46:18.928Z,16.00
2019-05-11T13:48:47.923Z,15.70
2019-05-11T13:51:18.232Z,15.40
2019-05-11T13:53:48.153Z,15.60
2019-05-11T13:56:18.290Z,16.00
2019-05-11T13:58:48.716Z,16.20
2019-05-11T14:01:18.622Z,16.30
2019-05-11T14:03:48.332Z,16.10
2019-05-11T14:06:18.485Z,16.00
2019-05-11T14:08:48.230Z,16.00
2019-05-11T14:11:18.298Z,16.30
2019-05-11T14:13:48.180Z,17.00
2019-05-11T14:18:48.790Z,19.10
2019-05-11T14:21:18.685Z,20.00
2019-05-11T14:23:48.375Z,20.50
2019-05-11T14:26:19.351Z,20.80
2019-05-11T14:28:48.482Z,21.40
2019-05-11T14:31:18.932Z,22.50
2019-05-11T14:32:21.185Z,17.90
2019-05-11T14:33:48.838Z,23.60
2019-05-11T14:36:18.671Z,24.30
2019-05-11T14:38:48.781Z,24.30
2019-05-11T14:41:18.413Z,23.40
2019-05-11T14:43:49.025Z,22.50
2019-05-11T14:46:18.271Z,21.60
2019-05-11T14:48:48.067Z,20.60
2019-05-11T14:51:18.032Z,19.50
2019-05-11T14:53:48.246Z,18.80
2019-05-11T14:56:19.068Z,18.70
2019-05-11T14:58:49.402Z,19.00
2019-05-11T15:01:18.641Z,19.10
2019-05-11T15:03:48.568Z,19.20
2019-05-11T15:06:18.947Z,19.70
2019-05-11T15:08:48.360Z,20.10
2019-05-11T15:11:28.066Z,20.20
2019-05-11T15:14:02.380Z,20.00
2019-05-11T15:16:31.269Z,19.30
2019-05-11T15:19:00.209Z,18.80
2019-05-11T15:21:29.101Z,18.20
2019-05-11T15:23:58.136Z,17.80
2019-05-11T15:26:27.761Z,17.40
2019-05-11T15:28:58.541Z,17.20
2019-05-11T15:31:27.923Z,17.40
2019-05-11T15:33:57.715Z,17.40
2019-05-11T15:36:28.535Z,17.20
2019-05-11T15:38:58.311Z,17.40
2019-05-11T15:41:28.105Z,17.60
2019-05-11T15:43:57.928Z,17.80
2019-05-11T15:46:28.243Z,18.10
2019-05-11T15:49:03.128Z,18.50
2019-05-11T15:51:29.099Z,18.50
2019-05-11T15:53:58.727Z,18.30
2019-05-11T15:56:28.047Z,18.10
2019-05-11T15:58:57.832Z,17.90
2019-05-11T16:01:28.929Z,17.90
2019-05-11T16:03:58.337Z,17.70
2019-05-11T16:06:28.466Z,17.50
2019-05-11T16:08:58.649Z,17.30
2019-05-11T16:11:28.338Z,17.70
2019-05-11T16:13:58.662Z,18.10
2019-05-11T16:16:28.124Z,17.90
2019-05-11T16:19:10.640Z,17.30
2019-05-11T16:21:28.557Z,16.60
2019-05-11T16:23:58.520Z,16.00
2019-05-11T16:26:28.122Z,15.40
2019-05-11T16:28:58.167Z,14.90
2019-05-11T16:31:28.492Z,14.30
2019-05-11T16:33:58.878Z,14.00
2019-05-11T16:36:28.478Z,13.60
2019-05-11T16:38:57.360Z,13.30
2019-05-11T16:41:28.905Z,13.10
2019-05-11T16:43:58.594Z,12.90
2019-05-11T16:46:28.367Z,12.80
2019-05-11T16:48:57.996Z,12.70
2019-05-11T16:51:46.022Z,12.60
2019-05-11T16:54:15.057Z,12.40
2019-05-11T16:56:43.824Z,12.30
2019-05-11T16:59:12.602Z,12.20
2019-05-11T17:01:41.413Z,12.20
2019-05-11T17:04:10.205Z,12.10
2019-05-11T17:06:39.331Z,12.00
2019-05-11T17:09:08.796Z,11.90
2019-05-11T17:11:38.413Z,11.80
2019-05-11T17:14:08.474Z,11.80
2019-05-11T17:16:38.498Z,11.70
2019-05-11T17:19:08.044Z,11.60
2019-05-11T17:21:38.028Z,11.50
2019-05-11T17:24:07.344Z,11.40
2019-05-11T17:26:38.527Z,11.30
2019-05-11T17:29:06.962Z,11.20
2019-05-11T17:31:38.016Z,11.10
2019-05-11T17:34:09.015Z,11.00
2019-05-11T17:36:38.331Z,10.90
2019-05-11T17:39:08.308Z,10.80
2019-05-11T17:41:38.669Z,10.70
2019-05-11T17:44:08.187Z,10.70
2019-05-11T17:46:40.057Z,10.60
2019-05-11T17:49:09.360Z,10.50
2019-05-11T17:51:38.453Z,10.40
2019-05-11T17:54:07.890Z,10.40
2019-05-11T17:56:38.758Z,10.30
2019-05-11T17:59:08.128Z,10.30
2019-05-11T18:01:37.057Z,10.30
2019-05-11T18:04:07.969Z,10.30
2019-05-11T18:06:38.440Z,10.30
2019-05-11T18:09:08.419Z,10.20
2019-05-11T18:11:38.200Z,10.20
2019-05-11T18:14:08.343Z,10.20
2019-05-11T18:16:37.470Z,10.10
2019-05-11T18:19:08.436Z,10.00
2019-05-11T18:21:38.735Z,9.90
2019-05-11T18:24:09.071Z,9.90
2019-05-11T18:26:38.433Z,9.80
2019-05-11T18:29:07.745Z,9.80
2019-05-11T18:31:38.377Z,9.80
2019-05-11T18:34:08.973Z,9.80
2019-05-11T18:36:38.280Z,9.80
2019-05-11T18:39:08.301Z,9.80
2019-05-11T18:41:39.092Z,9.80
2019-05-11T18:44:08.313Z,9.80
2019-05-11T18:46:38.882Z,9.80
2019-05-11T18:49:08.641Z,9.80
2019-05-11T18:51:37.982Z,9.80
2019-05-11T18:54:09.370Z,9.80
2019-05-11T18:56:38.296Z,9.80
2019-05-11T18:59:08.859Z,9.80
2019-05-11T19:01:38.282Z,9.80
2019-05-11T19:04:07.813Z,9.80
2019-05-11T19:06:37.925Z,9.80
2019-05-11T19:09:08.003Z,9.80
2019-05-11T19:11:38.289Z,9.80
2019-05-11T19:14:08.587Z,9.80
2019-05-11T19:16:39.028Z,9.80
2019-05-11T19:19:08.382Z,9.80
2019-05-11T19:21:37.545Z,9.80
2019-05-11T19:24:09.205Z,9.70
2019-05-11T19:26:36.977Z,9.70
2019-05-11T19:29:05.937Z,9.70
2019-05-11T19:31:34.989Z,9.70
2019-05-11T19:34:03.806Z,9.70
2019-05-11T19:36:32.662Z,9.70
2019-05-11T19:39:01.457Z,9.70
2019-05-11T19:41:30.614Z,9.70
2019-05-11T19:43:59.584Z,9.60
2019-05-11T19:46:28.372Z,9.70
2019-05-11T19:48:57.930Z,9.60
2019-05-11T19:51:29.109Z,9.70
2019-05-11T19:53:57.698Z,9.60
2019-05-11T19:56:28.774Z,9.60
2019-05-11T19:58:57.969Z,9.60
2019-05-11T20:01:27.890Z,9.60
2019-05-11T20:03:57.082Z,9.50
2019-05-11T20:06:28.104Z,9.50
2019-05-11T20:08:58.112Z,9.50
2019-05-11T20:11:28.090Z,9.50
2019-05-11T20:13:58.984Z,9.50
2019-05-11T20:16:27.959Z,9.50
2019-05-11T20:18:57.838Z,9.40
2019-05-11T20:21:28.825Z,9.40
2019-05-11T20:23:57.929Z,9.40
2019-05-11T20:26:28.613Z,9.30
2019-05-11T20:28:58.783Z,9.30
2019-05-11T20:31:27.846Z,9.30
2019-05-11T20:33:56.840Z,9.30
2019-05-11T20:36:25.662Z,9.20
2019-05-11T20:38:54.465Z,9.20
2019-05-11T20:41:23.255Z,9.20
2019-05-11T20:43:52.352Z,9.20
2019-05-11T20:46:21.126Z,9.20
2019-05-11T20:48:49.921Z,9.10
2019-05-11T20:51:32.508Z,9.10
2019-05-11T20:53:49.258Z,9.10
2019-05-11T20:56:18.112Z,9.00
2019-05-11T20:58:59.207Z,9.10
2019-05-11T21:01:28.533Z,9.10
2019-05-11T21:03:58.492Z,9.10
2019-05-11T21:06:29.463Z,9.00
2019-05-11T21:08:58.189Z,9.00
2019-05-11T21:11:26.990Z,9.00
2019-05-11T21:13:55.875Z,8.90
2019-05-11T21:16:24.825Z,8.90
2019-05-11T21:18:54.077Z,8.90
2019-05-11T21:21:22.939Z,8.90
2019-05-11T21:23:51.776Z,8.90
2019-05-11T21:26:20.997Z,8.90
2019-05-11T21:28:49.761Z,8.80
2019-05-11T21:31:18.782Z,8.80
2019-05-11T21:33:47.614Z,8.80
2019-05-11T21:36:17.944Z,8.80
2019-05-11T21:38:48.251Z,8.80
2019-05-11T21:41:18.371Z,8.70
2019-05-11T21:43:48.292Z,8.70
2019-05-11T21:46:18.093Z,8.70
2019-05-11T21:48:47.794Z,8.70
2019-05-11T21:51:18.083Z,8.70
2019-05-11T21:53:48.708Z,8.70
2019-05-11T21:56:18.919Z,8.70
2019-05-11T21:58:47.782Z,8.70
2019-05-11T22:01:18.412Z,8.70
2019-05-11T22:03:47.891Z,8.70
2019-05-11T22:06:17.358Z,8.70
2019-05-11T22:08:48.258Z,8.70
2019-05-11T22:11:17.972Z,8.70
2019-05-11T22:13:48.473Z,8.60
2019-05-11T22:16:17.802Z,8.60
2019-05-11T22:18:48.496Z,8.50
2019-05-11T22:21:18.738Z,8.50
2019-05-11T22:23:50.593Z,8.50
2019-05-11T22:26:18.533Z,8.40
2019-05-11T22:28:48.210Z,8.40
2019-05-11T22:31:18.195Z,8.40
2019-05-11T22:33:48.069Z,8.40
2019-05-11T22:36:16.912Z,8.40
2019-05-11T22:38:48.116Z,8.40
2019-05-11T22:41:18.073Z,8.40
2019-05-11T22:43:48.586Z,8.40
2019-05-11T22:46:17.805Z,8.40
2019-05-11T22:48:48.977Z,8.40
2019-05-11T22:51:18.363Z,8.40
2019-05-11T22:53:50.277Z,8.50
2019-05-11T22:56:20.074Z,8.50
2019-05-11T22:58:49.964Z,8.50
2019-05-11T23:01:18.884Z,8.50
2019-05-11T23:03:47.687Z,8.50
2019-05-11T23:06:18.095Z,8.50
2019-05-11T23:08:48.293Z,8.50
2019-05-11T23:11:18.042Z,8.40
2019-05-11T23:13:47.895Z,8.40
2019-05-11T23:16:17.956Z,8.40
2019-05-11T23:18:48.057Z,8.40
2019-05-11T23:21:17.039Z,8.40
2019-05-11T23:23:47.863Z,8.50
2019-05-11T23:26:17.860Z,8.40
2019-05-11T23:28:48.631Z,8.50
2019-05-11T23:31:17.710Z,8.40
2019-05-11T23:33:46.499Z,8.40
2019-05-11T23:36:15.345Z,8.40
2019-05-11T23:38:44.158Z,8.40
2019-05-11T23:41:24.274Z,8.40
2019-05-11T23:43:43.829Z,8.40
2019-05-11T23:46:13.153Z,8.40
2019-05-11T23:48:41.925Z,8.30
2019-05-11T23:51:10.957Z,8.30
2019-05-11T23:53:39.998Z,8.30
2019-05-11T23:56:08.783Z,8.30
2019-05-11T23:58:39.120Z,8.30
